This is the latest recevied weather packets stored in our database for station/object F4BBI-13. If no packets are shown the sender has not sent any weather packets the latest 1 day(s).
| Time | Temp. | Humidity | Pressure | Rain* | Wind** | Luminosity | Snow |
|---|---|---|---|---|---|---|---|
| 1836274341 | 16.11° C | 71% | 957 hPa | 0 mm | 0 m/s | 0 W/m² | - |
| 1836274196 | 16.11° C | 71% | 957 hPa | 0 mm | 0 m/s | 0 W/m² | - |
| 1778059511 | 20° C | 51% | 942 hPa | 0 mm | 0.45 m/s, 112° | 285 W/m² | - |
| 1778058907 | 20° C | 49% | 942 hPa | 0 mm | 0 m/s | 292 W/m² | - |
| 1778058302 | 18.89° C | 54% | 942 hPa | 0 mm | 0.45 m/s, 104° | 240 W/m² | - |
| 1778057698 | 17.78° C | 55% | 942 hPa | 0 mm | 0 m/s | 323 W/m² | - |
| 1778057094 | 18.89° C | 54% | 942 hPa | 0 mm | 0 m/s | 312 W/m² | - |
| 1778056490 | 17.78° C | 58% | 942 hPa | 0 mm | 0 m/s | 87 W/m² | - |
| 1778055885 | 16.11° C | 59% | 942 hPa | 0 mm | 0 m/s | 100 W/m² | - |
| 1778055281 | 16.67° C | 72% | 941 hPa | 0 mm | 0 m/s | 329 W/m² | - |
| 1778054677 | 14.44° C | 84% | 941 hPa | 0 mm | 0 m/s | 388 W/m² | - |
| 1778054073 | 12.22° C | 85% | 941 hPa | 0 mm | 0 m/s | 114 W/m² | - |
| 1778053468 | 12.22° C | 88% | 942 hPa | 0 mm | 0 m/s | 177 W/m² | - |
| 1778052864 | 11.67° C | 88% | 942 hPa | 0 mm | 0 m/s | 102 W/m² | - |
| 1778052260 | 11.67° C | 89% | 942 hPa | 0 mm | 0 m/s | 94 W/m² | - |
| 1778051655 | 11.11° C | 89% | 941 hPa | 0 mm | 0 m/s | 105 W/m² | - |
| 1778051051 | 10.56° C | 89% | 941 hPa | 0 mm | 0 m/s | 57 W/m² | - |
| 1778050447 | 9.44° C | 89% | 941 hPa | 0 mm | 0 m/s | 30 W/m² | - |
| 1778049842 | 10° C | 89% | 941 hPa | 0 mm | 0 m/s | 45 W/m² | - |
| 1778049238 | 10° C | 90% | 941 hPa | 0 mm | 0 m/s | 26 W/m² | - |
| 1778048634 | 10.56° C | 92% | 941 hPa | 0 mm | 0 m/s | 45 W/m² | - |
| 1778048029 | 10° C | 93% | 941 hPa | 0 mm | 0 m/s | 125 W/m² | - |
| 1778047425 | 9.44° C | 92% | 941 hPa | 0 mm | 0 m/s | 92 W/m² | - |
| 1778046821 | 8.89° C | 92% | 941 hPa | 0 mm | 0 m/s | 56 W/m² | - |
| 1778046216 | 8.89° C | 92% | 941 hPa | 0 mm | 0 m/s | 37 W/m² | - |
* Rain latest hour (hover to see other rain measurements)
** Current wind speed in m/s (hover to see current wind gust speed)